sensor_id;sensor_type;location;lat;lon;timestamp;P1;durP1;ratioP1;P2;durP2;ratioP2
56455;SDS011;42354;53.218;6.564;2023-09-07T00:01:05;6.65;;;3.75;;
56455;SDS011;42354;53.218;6.564;2023-09-07T00:03:32;5.35;;;3.60;;
56455;SDS011;42354;53.218;6.564;2023-09-07T00:05:57;9.05;;;3.88;;
56455;SDS011;42354;53.218;6.564;2023-09-07T00:08:22;11.75;;;3.83;;
56455;SDS011;42354;53.218;6.564;2023-09-07T00:10:49;7.82;;;3.85;;
56455;SDS011;42354;53.218;6.564;2023-09-07T00:13:15;8.77;;;3.90;;
56455;SDS011;42354;53.218;6.564;2023-09-07T00:15:40;7.82;;;3.83;;
56455;SDS011;42354;53.218;6.564;2023-09-07T00:18:08;5.88;;;3.30;;
56455;SDS011;42354;53.218;6.564;2023-09-07T00:20:33;7.95;;;4.25;;
56455;SDS011;42354;53.218;6.564;2023-09-07T00:22:59;9.63;;;4.63;;
56455;SDS011;42354;53.218;6.564;2023-09-07T00:25:25;9.43;;;4.47;;
56455;SDS011;42354;53.218;6.564;2023-09-07T00:27:51;7.38;;;3.75;;
56455;SDS011;42354;53.218;6.564;2023-09-07T00:30:18;8.77;;;4.97;;
56455;SDS011;42354;53.218;6.564;2023-09-07T00:32:43;6.13;;;4.13;;
56455;SDS011;42354;53.218;6.564;2023-09-07T00:35:09;24.50;;;5.03;;
56455;SDS011;42354;53.218;6.564;2023-09-07T00:37:35;8.13;;;5.05;;
56455;SDS011;42354;53.218;6.564;2023-09-07T00:40:03;10.80;;;5.07;;
56455;SDS011;42354;53.218;6.564;2023-09-07T00:42:29;9.18;;;5.70;;
56455;SDS011;42354;53.218;6.564;2023-09-07T00:44:54;9.43;;;5.80;;
56455;SDS011;42354;53.218;6.564;2023-09-07T00:47:20;11.27;;;5.60;;
56455;SDS011;42354;53.218;6.564;2023-09-07T00:49:46;10.88;;;5.65;;
56455;SDS011;42354;53.218;6.564;2023-09-07T00:52:12;10.68;;;5.43;;
56455;SDS011;42354;53.218;6.564;2023-09-07T00:54:37;8.20;;;5.95;;
56455;SDS011;42354;53.218;6.564;2023-09-07T00:57:06;10.95;;;6.15;;
56455;SDS011;42354;53.218;6.564;2023-09-07T00:59:32;11.55;;;5.88;;
56455;SDS011;42354;53.218;6.564;2023-09-07T01:01:58;13.80;;;5.65;;
56455;SDS011;42354;53.218;6.564;2023-09-07T01:04:24;9.68;;;6.18;;
56455;SDS011;42354;53.218;6.564;2023-09-07T01:06:55;10.13;;;5.40;;
56455;SDS011;42354;53.218;6.564;2023-09-07T01:09:25;8.27;;;4.45;;
56455;SDS011;42354;53.218;6.564;2023-09-07T01:11:53;8.38;;;4.43;;
56455;SDS011;42354;53.218;6.564;2023-09-07T01:14:18;18.80;;;5.22;;
56455;SDS011;42354;53.218;6.564;2023-09-07T01:16:45;6.82;;;4.55;;
56455;SDS011;42354;53.218;6.564;2023-09-07T01:19:11;5.82;;;5.20;;
56455;SDS011;42354;53.218;6.564;2023-09-07T01:21:37;9.57;;;5.20;;
56455;SDS011;42354;53.218;6.564;2023-09-07T01:24:10;6.72;;;5.15;;
56455;SDS011;42354;53.218;6.564;2023-09-07T01:26:37;13.30;;;5.20;;
56455;SDS011;42354;53.218;6.564;2023-09-07T01:29:07;8.38;;;4.95;;
56455;SDS011;42354;53.218;6.564;2023-09-07T01:31:37;9.68;;;5.20;;
56455;SDS011;42354;53.218;6.564;2023-09-07T01:34:05;12.70;;;5.43;;
56455;SDS011;42354;53.218;6.564;2023-09-07T01:36:32;8.57;;;5.15;;
56455;SDS011;42354;53.218;6.564;2023-09-07T01:38:57;8.32;;;5.45;;
56455;SDS011;42354;53.218;6.564;2023-09-07T01:41:23;9.60;;;5.85;;
56455;SDS011;42354;53.218;6.564;2023-09-07T01:43:48;8.30;;;5.65;;
56455;SDS011;42354;53.218;6.564;2023-09-07T01:46:14;9.10;;;5.60;;
56455;SDS011;42354;53.218;6.564;2023-09-07T01:48:40;12.38;;;6.15;;
56455;SDS011;42354;53.218;6.564;2023-09-07T01:51:07;13.23;;;6.45;;
56455;SDS011;42354;53.218;6.564;2023-09-07T01:53:32;12.68;;;6.60;;
56455;SDS011;42354;53.218;6.564;2023-09-07T01:55:58;8.95;;;5.70;;
56455;SDS011;42354;53.218;6.564;2023-09-07T01:58:24;10.13;;;6.18;;
56455;SDS011;42354;53.218;6.564;2023-09-07T02:00:50;9.52;;;6.00;;
56455;SDS011;42354;53.218;6.564;2023-09-07T02:03:15;10.00;;;6.20;;
56455;SDS011;42354;53.218;6.564;2023-09-07T02:05:40;9.52;;;6.10;;
56455;SDS011;42354;53.218;6.564;2023-09-07T02:08:06;10.73;;;6.20;;
56455;SDS011;42354;53.218;6.564;2023-09-07T02:10:32;11.90;;;6.50;;
56455;SDS011;42354;53.218;6.564;2023-09-07T02:12:58;12.98;;;6.55;;
56455;SDS011;42354;53.218;6.564;2023-09-07T02:15:24;11.43;;;6.57;;
56455;SDS011;42354;53.218;6.564;2023-09-07T02:17:49;7.68;;;6.10;;
56455;SDS011;42354;53.218;6.564;2023-09-07T02:20:15;12.45;;;6.50;;
56455;SDS011;42354;53.218;6.564;2023-09-07T02:22:41;10.07;;;6.65;;
56455;SDS011;42354;53.218;6.564;2023-09-07T02:25:06;13.18;;;6.68;;
56455;SDS011;42354;53.218;6.564;2023-09-07T02:27:33;10.98;;;5.97;;
56455;SDS011;42354;53.218;6.564;2023-09-07T02:29:59;10.25;;;6.75;;
56455;SDS011;42354;53.218;6.564;2023-09-07T02:32:24;9.63;;;6.80;;
56455;SDS011;42354;53.218;6.564;2023-09-07T02:34:50;12.50;;;7.10;;
56455;SDS011;42354;53.218;6.564;2023-09-07T02:37:15;13.00;;;7.28;;
56455;SDS011;42354;53.218;6.564;2023-09-07T02:39:41;8.90;;;6.35;;
56455;SDS011;42354;53.218;6.564;2023-09-07T02:42:07;11.05;;;6.72;;
56455;SDS011;42354;53.218;6.564;2023-09-07T02:44:32;8.45;;;6.40;;
56455;SDS011;42354;53.218;6.564;2023-09-07T02:46:58;10.98;;;6.93;;
56455;SDS011;42354;53.218;6.564;2023-09-07T02:49:23;13.80;;;7.50;;
56455;SDS011;42354;53.218;6.564;2023-09-07T02:51:48;11.15;;;6.38;;
56455;SDS011;42354;53.218;6.564;2023-09-07T02:54:14;8.63;;;6.20;;
56455;SDS011;42354;53.218;6.564;2023-09-07T02:56:41;12.63;;;6.45;;
56455;SDS011;42354;53.218;6.564;2023-09-07T02:59:06;9.77;;;7.05;;
56455;SDS011;42354;53.218;6.564;2023-09-07T03:01:32;20.20;;;6.93;;
56455;SDS011;42354;53.218;6.564;2023-09-07T03:03:57;9.57;;;7.20;;
56455;SDS011;42354;53.218;6.564;2023-09-07T03:06:22;9.18;;;6.97;;
56455;SDS011;42354;53.218;6.564;2023-09-07T03:08:48;10.20;;;6.45;;
56455;SDS011;42354;53.218;6.564;2023-09-07T03:11:13;13.85;;;7.20;;
56455;SDS011;42354;53.218;6.564;2023-09-07T03:13:39;9.85;;;7.18;;
56455;SDS011;42354;53.218;6.564;2023-09-07T03:16:05;11.68;;;7.57;;
56455;SDS011;42354;53.218;6.564;2023-09-07T03:18:31;8.60;;;7.20;;
56455;SDS011;42354;53.218;6.564;2023-09-07T03:21:00;11.38;;;7.53;;
56455;SDS011;42354;53.218;6.564;2023-09-07T03:23:31;9.05;;;7.85;;
56455;SDS011;42354;53.218;6.564;2023-09-07T03:25:57;11.77;;;8.07;;
56455;SDS011;42354;53.218;6.564;2023-09-07T03:28:23;9.63;;;7.88;;
56455;SDS011;42354;53.218;6.564;2023-09-07T03:30:50;11.15;;;7.60;;
56455;SDS011;42354;53.218;6.564;2023-09-07T03:33:16;15.20;;;8.48;;
56455;SDS011;42354;53.218;6.564;2023-09-07T03:35:41;11.48;;;7.90;;
56455;SDS011;42354;53.218;6.564;2023-09-07T03:38:07;15.13;;;8.32;;
56455;SDS011;42354;53.218;6.564;2023-09-07T03:40:32;9.10;;;7.00;;
56455;SDS011;42354;53.218;6.564;2023-09-07T03:42:57;10.23;;;7.68;;
56455;SDS011;42354;53.218;6.564;2023-09-07T03:45:23;12.57;;;8.18;;
56455;SDS011;42354;53.218;6.564;2023-09-07T03:47:48;10.82;;;8.20;;
56455;SDS011;42354;53.218;6.564;2023-09-07T03:50:14;11.10;;;8.07;;
56455;SDS011;42354;53.218;6.564;2023-09-07T03:52:40;9.82;;;7.78;;
56455;SDS011;42354;53.218;6.564;2023-09-07T03:55:05;10.20;;;8.57;;
56455;SDS011;42354;53.218;6.564;2023-09-07T03:57:32;11.27;;;8.45;;
56455;SDS011;42354;53.218;6.564;2023-09-07T03:59:59;15.75;;;8.80;;
56455;SDS011;42354;53.218;6.564;2023-09-07T04:02:25;10.52;;;8.32;;
56455;SDS011;42354;53.218;6.564;2023-09-07T04:04:54;13.75;;;9.18;;
56455;SDS011;42354;53.218;6.564;2023-09-07T04:07:22;13.32;;;8.57;;
56455;SDS011;42354;53.218;6.564;2023-09-07T04:09:49;10.82;;;8.52;;
56455;SDS011;42354;53.218;6.564;2023-09-07T04:12:16;11.95;;;8.50;;
56455;SDS011;42354;53.218;6.564;2023-09-07T04:14:41;13.77;;;8.82;;
56455;SDS011;42354;53.218;6.564;2023-09-07T04:17:07;11.38;;;8.95;;
56455;SDS011;42354;53.218;6.564;2023-09-07T04:19:34;11.18;;;8.90;;
56455;SDS011;42354;53.218;6.564;2023-09-07T04:22:00;11.77;;;8.98;;
56455;SDS011;42354;53.218;6.564;2023-09-07T04:24:25;12.93;;;9.00;;
56455;SDS011;42354;53.218;6.564;2023-09-07T04:26:52;12.65;;;8.45;;
56455;SDS011;42354;53.218;6.564;2023-09-07T04:29:18;15.05;;;9.13;;
56455;SDS011;42354;53.218;6.564;2023-09-07T04:31:43;13.68;;;8.30;;
56455;SDS011;42354;53.218;6.564;2023-09-07T04:34:09;12.90;;;7.95;;
56455;SDS011;42354;53.218;6.564;2023-09-07T04:36:34;12.02;;;8.23;;
56455;SDS011;42354;53.218;6.564;2023-09-07T04:38:59;13.20;;;8.25;;
56455;SDS011;42354;53.218;6.564;2023-09-07T04:41:25;10.93;;;8.38;;
56455;SDS011;42354;53.218;6.564;2023-09-07T04:43:50;11.88;;;8.82;;
56455;SDS011;42354;53.218;6.564;2023-09-07T04:46:16;11.95;;;7.60;;
56455;SDS011;42354;53.218;6.564;2023-09-07T04:48:42;12.32;;;8.68;;
56455;SDS011;42354;53.218;6.564;2023-09-07T04:51:09;12.38;;;8.52;;
56455;SDS011;42354;53.218;6.564;2023-09-07T04:53:38;11.00;;;8.20;;
56455;SDS011;42354;53.218;6.564;2023-09-07T04:56:04;15.10;;;8.60;;
56455;SDS011;42354;53.218;6.564;2023-09-07T04:58:31;10.88;;;8.32;;
56455;SDS011;42354;53.218;6.564;2023-09-07T05:01:06;13.30;;;8.20;;
56455;SDS011;42354;53.218;6.564;2023-09-07T05:03:35;11.55;;;8.32;;
56455;SDS011;42354;53.218;6.564;2023-09-07T05:06:01;11.48;;;8.55;;
56455;SDS011;42354;53.218;6.564;2023-09-07T05:08:28;16.17;;;9.45;;
56455;SDS011;42354;53.218;6.564;2023-09-07T05:11:03;15.85;;;8.75;;
56455;SDS011;42354;53.218;6.564;2023-09-07T05:13:30;11.95;;;7.93;;
56455;SDS011;42354;53.218;6.564;2023-09-07T05:15:55;11.23;;;8.90;;
56455;SDS011;42354;53.218;6.564;2023-09-07T05:18:21;14.13;;;9.40;;
56455;SDS011;42354;53.218;6.564;2023-09-07T05:20:47;12.45;;;8.88;;
56455;SDS011;42354;53.218;6.564;2023-09-07T05:23:19;14.95;;;8.75;;
56455;SDS011;42354;53.218;6.564;2023-09-07T05:25:47;13.00;;;8.48;;
56455;SDS011;42354;53.218;6.564;2023-09-07T05:28:14;10.82;;;8.63;;
56455;SDS011;42354;53.218;6.564;2023-09-07T05:30:40;12.43;;;8.48;;
56455;SDS011;42354;53.218;6.564;2023-09-07T05:33:11;13.40;;;8.30;;
56455;SDS011;42354;53.218;6.564;2023-09-07T05:35:38;17.75;;;9.75;;
56455;SDS011;42354;53.218;6.564;2023-09-07T05:38:04;13.88;;;9.00;;
56455;SDS011;42354;53.218;6.564;2023-09-07T05:40:33;13.95;;;8.70;;
56455;SDS011;42354;53.218;6.564;2023-09-07T05:42:59;12.68;;;9.10;;
56455;SDS011;42354;53.218;6.564;2023-09-07T05:45:25;12.60;;;8.23;;
56455;SDS011;42354;53.218;6.564;2023-09-07T05:47:51;12.20;;;8.43;;
56455;SDS011;42354;53.218;6.564;2023-09-07T05:50:17;13.32;;;8.80;;
56455;SDS011;42354;53.218;6.564;2023-09-07T05:52:42;13.02;;;8.18;;
56455;SDS011;42354;53.218;6.564;2023-09-07T05:55:07;11.93;;;8.43;;
56455;SDS011;42354;53.218;6.564;2023-09-07T05:57:33;15.90;;;8.45;;
56455;SDS011;42354;53.218;6.564;2023-09-07T05:59:58;11.48;;;9.13;;
56455;SDS011;42354;53.218;6.564;2023-09-07T06:02:24;13.23;;;8.68;;
56455;SDS011;42354;53.218;6.564;2023-09-07T06:04:49;12.82;;;8.77;;
56455;SDS011;42354;53.218;6.564;2023-09-07T06:07:15;11.57;;;8.25;;
56455;SDS011;42354;53.218;6.564;2023-09-07T06:09:40;11.55;;;9.15;;
56455;SDS011;42354;53.218;6.564;2023-09-07T06:12:06;17.25;;;8.70;;
56455;SDS011;42354;53.218;6.564;2023-09-07T06:14:31;10.70;;;8.45;;
56455;SDS011;42354;53.218;6.564;2023-09-07T06:16:57;13.85;;;7.80;;
56455;SDS011;42354;53.218;6.564;2023-09-07T06:19:22;12.95;;;8.80;;
56455;SDS011;42354;53.218;6.564;2023-09-07T06:21:47;15.13;;;8.73;;
56455;SDS011;42354;53.218;6.564;2023-09-07T06:24:13;15.57;;;8.80;;
56455;SDS011;42354;53.218;6.564;2023-09-07T06:26:39;20.98;;;8.48;;
56455;SDS011;42354;53.218;6.564;2023-09-07T06:29:05;11.93;;;8.35;;
56455;SDS011;42354;53.218;6.564;2023-09-07T06:31:30;11.80;;;8.23;;
56455;SDS011;42354;53.218;6.564;2023-09-07T06:33:55;12.90;;;8.15;;
56455;SDS011;42354;53.218;6.564;2023-09-07T06:36:21;19.50;;;8.50;;
56455;SDS011;42354;53.218;6.564;2023-09-07T06:38:47;10.40;;;7.85;;
56455;SDS011;42354;53.218;6.564;2023-09-07T06:41:13;16.40;;;8.40;;
56455;SDS011;42354;53.218;6.564;2023-09-07T06:43:38;15.25;;;7.90;;
56455;SDS011;42354;53.218;6.564;2023-09-07T06:46:07;14.65;;;7.82;;
56455;SDS011;42354;53.218;6.564;2023-09-07T06:48:34;9.32;;;7.45;;
56455;SDS011;42354;53.218;6.564;2023-09-07T06:51:03;12.10;;;7.53;;
56455;SDS011;42354;53.218;6.564;2023-09-07T06:53:29;12.25;;;7.55;;
56455;SDS011;42354;53.218;6.564;2023-09-07T06:55:58;9.68;;;7.10;;
56455;SDS011;42354;53.218;6.564;2023-09-07T06:58:25;10.80;;;7.63;;
56455;SDS011;42354;53.218;6.564;2023-09-07T07:00:50;21.17;;;7.85;;
56455;SDS011;42354;53.218;6.564;2023-09-07T07:03:15;12.10;;;7.70;;
56455;SDS011;42354;53.218;6.564;2023-09-07T07:05:41;8.30;;;7.03;;
56455;SDS011;42354;53.218;6.564;2023-09-07T07:08:07;15.48;;;7.38;;
56455;SDS011;42354;53.218;6.564;2023-09-07T07:10:32;12.57;;;7.63;;
56455;SDS011;42354;53.218;6.564;2023-09-07T07:12:58;10.65;;;6.72;;
56455;SDS011;42354;53.218;6.564;2023-09-07T07:15:25;11.48;;;6.63;;
56455;SDS011;42354;53.218;6.564;2023-09-07T07:17:50;11.00;;;6.70;;
56455;SDS011;42354;53.218;6.564;2023-09-07T07:20:15;9.60;;;7.00;;
56455;SDS011;42354;53.218;6.564;2023-09-07T07:22:41;15.23;;;7.38;;
56455;SDS011;42354;53.218;6.564;2023-09-07T07:25:06;10.40;;;7.10;;
56455;SDS011;42354;53.218;6.564;2023-09-07T07:27:32;10.27;;;6.93;;
56455;SDS011;42354;53.218;6.564;2023-09-07T07:29:58;9.77;;;6.82;;
56455;SDS011;42354;53.218;6.564;2023-09-07T07:32:24;9.65;;;6.70;;
56455;SDS011;42354;53.218;6.564;2023-09-07T07:34:49;12.50;;;7.50;;
56455;SDS011;42354;53.218;6.564;2023-09-07T07:37:15;7.82;;;6.93;;
56455;SDS011;42354;53.218;6.564;2023-09-07T07:39:43;9.40;;;7.20;;
56455;SDS011;42354;53.218;6.564;2023-09-07T07:42:08;9.57;;;7.32;;
56455;SDS011;42354;53.218;6.564;2023-09-07T07:44:33;11.07;;;7.72;;
56455;SDS011;42354;53.218;6.564;2023-09-07T07:46:59;8.48;;;7.32;;
56455;SDS011;42354;53.218;6.564;2023-09-07T07:49:24;11.07;;;7.13;;
56455;SDS011;42354;53.218;6.564;2023-09-07T07:51:49;8.38;;;6.57;;
56455;SDS011;42354;53.218;6.564;2023-09-07T07:54:16;14.18;;;7.00;;
56455;SDS011;42354;53.218;6.564;2023-09-07T07:56:41;13.30;;;7.25;;
56455;SDS011;42354;53.218;6.564;2023-09-07T07:59:07;7.05;;;5.88;;
56455;SDS011;42354;53.218;6.564;2023-09-07T08:01:32;8.65;;;6.53;;
56455;SDS011;42354;53.218;6.564;2023-09-07T08:03:58;8.80;;;6.53;;
56455;SDS011;42354;53.218;6.564;2023-09-07T08:06:23;11.35;;;7.00;;
56455;SDS011;42354;53.218;6.564;2023-09-07T08:08:50;9.30;;;6.47;;
56455;SDS011;42354;53.218;6.564;2023-09-07T08:11:15;11.10;;;6.38;;
56455;SDS011;42354;53.218;6.564;2023-09-07T08:13:42;8.52;;;7.35;;
56455;SDS011;42354;53.218;6.564;2023-09-07T08:16:13;10.68;;;6.88;;
56455;SDS011;42354;53.218;6.564;2023-09-07T08:18:40;10.57;;;6.78;;
56455;SDS011;42354;53.218;6.564;2023-09-07T08:21:05;7.82;;;6.72;;
56455;SDS011;42354;53.218;6.564;2023-09-07T08:23:31;10.73;;;7.07;;
56455;SDS011;42354;53.218;6.564;2023-09-07T08:25:58;10.73;;;6.97;;
56455;SDS011;42354;53.218;6.564;2023-09-07T08:28:23;11.48;;;7.10;;
56455;SDS011;42354;53.218;6.564;2023-09-07T08:30:50;8.07;;;6.50;;
56455;SDS011;42354;53.218;6.564;2023-09-07T08:33:20;14.40;;;7.85;;
56455;SDS011;42354;53.218;6.564;2023-09-07T08:35:52;13.00;;;6.80;;
56455;SDS011;42354;53.218;6.564;2023-09-07T08:38:18;13.98;;;7.70;;
56455;SDS011;42354;53.218;6.564;2023-09-07T08:40:44;10.68;;;7.40;;
56455;SDS011;42354;53.218;6.564;2023-09-07T08:43:11;10.45;;;6.90;;
56455;SDS011;42354;53.218;6.564;2023-09-07T08:45:39;8.05;;;6.13;;
56455;SDS011;42354;53.218;6.564;2023-09-07T08:48:11;7.75;;;5.88;;
56455;SDS011;42354;53.218;6.564;2023-09-07T08:50:38;11.55;;;6.28;;
56455;SDS011;42354;53.218;6.564;2023-09-07T08:53:07;11.13;;;6.07;;
56455;SDS011;42354;53.218;6.564;2023-09-07T08:55:33;9.45;;;6.22;;
56455;SDS011;42354;53.218;6.564;2023-09-07T08:57:59;9.18;;;6.20;;
56455;SDS011;42354;53.218;6.564;2023-09-07T09:00:24;10.02;;;6.00;;
56455;SDS011;42354;53.218;6.564;2023-09-07T09:02:50;8.13;;;5.93;;
56455;SDS011;42354;53.218;6.564;2023-09-07T09:05:19;8.35;;;6.43;;
56455;SDS011;42354;53.218;6.564;2023-09-07T09:07:45;9.10;;;5.57;;
56455;SDS011;42354;53.218;6.564;2023-09-07T09:10:10;11.90;;;6.30;;
56455;SDS011;42354;53.218;6.564;2023-09-07T09:12:35;10.30;;;6.28;;
56455;SDS011;42354;53.218;6.564;2023-09-07T09:15:10;8.25;;;5.40;;
56455;SDS011;42354;53.218;6.564;2023-09-07T09:17:36;8.75;;;4.80;;
56455;SDS011;42354;53.218;6.564;2023-09-07T09:20:01;8.68;;;4.40;;
56455;SDS011;42354;53.218;6.564;2023-09-07T09:22:30;16.33;;;6.25;;
56455;SDS011;42354;53.218;6.564;2023-09-07T09:24:56;7.68;;;4.88;;
56455;SDS011;42354;53.218;6.564;2023-09-07T09:27:21;7.82;;;4.78;;
56455;SDS011;42354;53.218;6.564;2023-09-07T09:29:46;8.50;;;4.50;;
56455;SDS011;42354;53.218;6.564;2023-09-07T09:32:15;7.95;;;4.80;;
56455;SDS011;42354;53.218;6.564;2023-09-07T09:34:43;5.65;;;4.50;;
56455;SDS011;42354;53.218;6.564;2023-09-07T09:37:13;9.10;;;4.70;;
56455;SDS011;42354;53.218;6.564;2023-09-07T09:39:42;9.98;;;5.32;;
56455;SDS011;42354;53.218;6.564;2023-09-07T09:42:08;6.57;;;4.82;;
56455;SDS011;42354;53.218;6.564;2023-09-07T09:44:34;7.50;;;5.30;;
56455;SDS011;42354;53.218;6.564;2023-09-07T09:47:03;11.70;;;5.00;;
56455;SDS011;42354;53.218;6.564;2023-09-07T09:49:28;6.47;;;4.30;;
56455;SDS011;42354;53.218;6.564;2023-09-07T09:51:54;15.50;;;5.72;;
56455;SDS011;42354;53.218;6.564;2023-09-07T09:54:21;9.98;;;4.70;;
56455;SDS011;42354;53.218;6.564;2023-09-07T09:56:48;8.85;;;4.57;;
56455;SDS011;42354;53.218;6.564;2023-09-07T09:59:16;9.10;;;4.78;;
56455;SDS011;42354;53.218;6.564;2023-09-07T10:01:48;7.07;;;4.30;;
56455;SDS011;42354;53.218;6.564;2023-09-07T10:04:15;12.57;;;4.65;;
56455;SDS011;42354;53.218;6.564;2023-09-07T10:06:58;13.57;;;5.10;;
56455;SDS011;42354;53.218;6.564;2023-09-07T10:09:30;8.05;;;5.05;;
56455;SDS011;42354;53.218;6.564;2023-09-07T10:12:01;6.75;;;4.63;;
56455;SDS011;42354;53.218;6.564;2023-09-07T10:14:37;13.27;;;4.28;;
56455;SDS011;42354;53.218;6.564;2023-09-07T10:17:07;8.75;;;4.88;;
56455;SDS011;42354;53.218;6.564;2023-09-07T10:19:34;6.05;;;4.82;;
56455;SDS011;42354;53.218;6.564;2023-09-07T10:22:05;8.55;;;4.72;;
56455;SDS011;42354;53.218;6.564;2023-09-07T10:24:33;8.00;;;4.20;;
56455;SDS011;42354;53.218;6.564;2023-09-07T10:32:40;7.07;;;5.00;;
56455;SDS011;42354;53.218;6.564;2023-09-07T10:35:16;8.95;;;4.68;;
56455;SDS011;42354;53.218;6.564;2023-09-07T10:37:44;9.48;;;5.10;;
56455;SDS011;42354;53.218;6.564;2023-09-07T10:40:20;8.60;;;4.93;;
56455;SDS011;42354;53.218;6.564;2023-09-07T10:42:46;7.47;;;5.22;;
56455;SDS011;42354;53.218;6.564;2023-09-07T10:45:13;11.40;;;4.80;;
56455;SDS011;42354;53.218;6.564;2023-09-07T10:47:42;9.52;;;5.07;;
56455;SDS011;42354;53.218;6.564;2023-09-07T10:50:12;6.35;;;4.38;;
56455;SDS011;42354;53.218;6.564;2023-09-07T10:52:39;8.18;;;4.47;;
56455;SDS011;42354;53.218;6.564;2023-09-07T10:55:06;6.78;;;4.10;;
56455;SDS011;42354;53.218;6.564;2023-09-07T10:57:45;5.68;;;4.00;;
56455;SDS011;42354;53.218;6.564;2023-09-07T11:00:12;8.75;;;4.72;;
56455;SDS011;42354;53.218;6.564;2023-09-07T11:02:42;7.30;;;4.30;;
56455;SDS011;42354;53.218;6.564;2023-09-07T11:05:08;7.90;;;4.50;;
56455;SDS011;42354;53.218;6.564;2023-09-07T11:07:35;6.13;;;4.20;;
56455;SDS011;42354;53.218;6.564;2023-09-07T11:10:04;7.13;;;4.90;;
56455;SDS011;42354;53.218;6.564;2023-09-07T11:12:35;6.25;;;3.85;;
56455;SDS011;42354;53.218;6.564;2023-09-07T11:15:03;8.48;;;4.13;;
56455;SDS011;42354;53.218;6.564;2023-09-07T11:17:29;6.63;;;4.38;;
56455;SDS011;42354;53.218;6.564;2023-09-07T11:19:56;9.75;;;4.65;;
56455;SDS011;42354;53.218;6.564;2023-09-07T11:22:22;10.73;;;4.68;;
56455;SDS011;42354;53.218;6.564;2023-09-07T11:24:47;7.72;;;4.28;;
56455;SDS011;42354;53.218;6.564;2023-09-07T11:27:13;6.63;;;4.00;;
56455;SDS011;42354;53.218;6.564;2023-09-07T11:29:41;11.90;;;4.20;;
56455;SDS011;42354;53.218;6.564;2023-09-07T11:32:10;5.78;;;3.65;;
56455;SDS011;42354;53.218;6.564;2023-09-07T11:34:47;12.82;;;4.72;;
56455;SDS011;42354;53.218;6.564;2023-09-07T11:37:14;8.25;;;4.28;;
56455;SDS011;42354;53.218;6.564;2023-09-07T11:39:40;8.57;;;4.10;;
56455;SDS011;42354;53.218;6.564;2023-09-07T11:42:05;9.55;;;3.75;;
56455;SDS011;42354;53.218;6.564;2023-09-07T11:44:31;11.52;;;4.18;;
56455;SDS011;42354;53.218;6.564;2023-09-07T11:46:56;7.32;;;4.30;;
56455;SDS011;42354;53.218;6.564;2023-09-07T11:49:21;10.10;;;4.22;;
56455;SDS011;42354;53.218;6.564;2023-09-07T11:51:47;5.35;;;3.78;;
56455;SDS011;42354;53.218;6.564;2023-09-07T11:54:14;9.00;;;4.63;;
56455;SDS011;42354;53.218;6.564;2023-09-07T11:56:39;7.10;;;4.30;;
56455;SDS011;42354;53.218;6.564;2023-09-07T11:59:08;9.02;;;4.43;;
56455;SDS011;42354;53.218;6.564;2023-09-07T12:01:34;10.02;;;3.83;;
56455;SDS011;42354;53.218;6.564;2023-09-07T12:03:59;7.10;;;3.95;;
56455;SDS011;42354;53.218;6.564;2023-09-07T12:06:25;7.35;;;4.03;;
56455;SDS011;42354;53.218;6.564;2023-09-07T12:09:00;6.15;;;3.60;;
56455;SDS011;42354;53.218;6.564;2023-09-07T12:11:27;7.22;;;4.32;;
56455;SDS011;42354;53.218;6.564;2023-09-07T12:13:52;5.72;;;3.67;;
56455;SDS011;42354;53.218;6.564;2023-09-07T12:16:18;6.68;;;4.05;;
56455;SDS011;42354;53.218;6.564;2023-09-07T12:18:43;8.95;;;3.75;;
56455;SDS011;42354;53.218;6.564;2023-09-07T12:21:11;8.30;;;3.97;;
56455;SDS011;42354;53.218;6.564;2023-09-07T12:23:38;9.02;;;4.50;;
56455;SDS011;42354;53.218;6.564;2023-09-07T12:26:03;5.13;;;4.60;;
56455;SDS011;42354;53.218;6.564;2023-09-07T12:28:29;9.57;;;3.95;;
56455;SDS011;42354;53.218;6.564;2023-09-07T12:30:58;4.25;;;3.85;;
56455;SDS011;42354;53.218;6.564;2023-09-07T12:33:23;5.82;;;4.38;;
56455;SDS011;42354;53.218;6.564;2023-09-07T12:35:49;8.50;;;4.72;;
56455;SDS011;42354;53.218;6.564;2023-09-07T12:38:14;7.97;;;4.55;;
56455;SDS011;42354;53.218;6.564;2023-09-07T12:40:43;7.15;;;4.10;;
56455;SDS011;42354;53.218;6.564;2023-09-07T12:43:10;5.53;;;3.92;;
56455;SDS011;42354;53.218;6.564;2023-09-07T12:45:35;6.05;;;4.43;;
56455;SDS011;42354;53.218;6.564;2023-09-07T12:48:01;7.13;;;4.85;;
56455;SDS011;42354;53.218;6.564;2023-09-07T12:50:27;8.38;;;4.50;;
56455;SDS011;42354;53.218;6.564;2023-09-07T12:52:52;9.13;;;4.22;;
56455;SDS011;42354;53.218;6.564;2023-09-07T12:55:19;8.15;;;4.13;;
56455;SDS011;42354;53.218;6.564;2023-09-07T12:57:45;7.57;;;4.28;;
56455;SDS011;42354;53.218;6.564;2023-09-07T13:00:12;5.75;;;3.78;;
56455;SDS011;42354;53.218;6.564;2023-09-07T13:02:37;5.90;;;4.50;;
56455;SDS011;42354;53.218;6.564;2023-09-07T13:05:03;7.05;;;4.90;;
56455;SDS011;42354;53.218;6.564;2023-09-07T13:07:33;7.40;;;4.68;;
56455;SDS011;42354;53.218;6.564;2023-09-07T13:10:00;7.10;;;5.07;;
56455;SDS011;42354;53.218;6.564;2023-09-07T13:12:29;11.90;;;4.65;;
56455;SDS011;42354;53.218;6.564;2023-09-07T13:14:55;8.85;;;4.45;;
56455;SDS011;42354;53.218;6.564;2023-09-07T13:17:21;6.10;;;4.10;;
56455;SDS011;42354;53.218;6.564;2023-09-07T13:19:49;9.50;;;4.55;;
56455;SDS011;42354;53.218;6.564;2023-09-07T13:22:15;5.20;;;4.40;;
56455;SDS011;42354;53.218;6.564;2023-09-07T13:24:40;6.68;;;4.57;;
56455;SDS011;42354;53.218;6.564;2023-09-07T13:27:08;7.82;;;4.07;;
56455;SDS011;42354;53.218;6.564;2023-09-07T13:29:35;8.23;;;4.70;;
56455;SDS011;42354;53.218;6.564;2023-09-07T13:32:01;6.25;;;4.22;;
56455;SDS011;42354;53.218;6.564;2023-09-07T13:34:26;7.72;;;4.40;;
56455;SDS011;42354;53.218;6.564;2023-09-07T13:36:52;4.78;;;4.13;;
56455;SDS011;42354;53.218;6.564;2023-09-07T13:39:18;6.05;;;4.40;;
56455;SDS011;42354;53.218;6.564;2023-09-07T13:41:43;8.07;;;4.68;;
56455;SDS011;42354;53.218;6.564;2023-09-07T13:44:09;6.38;;;4.00;;
56455;SDS011;42354;53.218;6.564;2023-09-07T13:46:34;10.00;;;3.63;;
56455;SDS011;42354;53.218;6.564;2023-09-07T13:49:00;5.63;;;4.32;;
56455;SDS011;42354;53.218;6.564;2023-09-07T13:51:27;8.55;;;4.65;;
56455;SDS011;42354;53.218;6.564;2023-09-07T13:53:53;5.40;;;3.95;;
56455;SDS011;42354;53.218;6.564;2023-09-07T13:56:18;6.55;;;3.90;;
56455;SDS011;42354;53.218;6.564;2023-09-07T13:58:45;5.28;;;3.78;;
56455;SDS011;42354;53.218;6.564;2023-09-07T14:01:12;7.70;;;4.00;;
56455;SDS011;42354;53.218;6.564;2023-09-07T14:03:37;8.25;;;3.70;;
56455;SDS011;42354;53.218;6.564;2023-09-07T14:06:07;7.30;;;3.97;;
56455;SDS011;42354;53.218;6.564;2023-09-07T14:08:32;5.50;;;3.72;;
56455;SDS011;42354;53.218;6.564;2023-09-07T14:10:59;4.82;;;3.90;;
56455;SDS011;42354;53.218;6.564;2023-09-07T14:13:25;12.20;;;4.40;;
56455;SDS011;42354;53.218;6.564;2023-09-07T14:15:51;8.35;;;4.40;;
56455;SDS011;42354;53.218;6.564;2023-09-07T14:18:16;5.55;;;3.80;;
56455;SDS011;42354;53.218;6.564;2023-09-07T14:20:42;4.55;;;3.67;;
56455;SDS011;42354;53.218;6.564;2023-09-07T14:23:08;6.18;;;4.20;;
56455;SDS011;42354;53.218;6.564;2023-09-07T14:25:33;6.68;;;3.60;;
56455;SDS011;42354;53.218;6.564;2023-09-07T14:27:59;5.22;;;4.07;;
56455;SDS011;42354;53.218;6.564;2023-09-07T14:30:25;4.65;;;3.70;;
56455;SDS011;42354;53.218;6.564;2023-09-07T14:32:50;5.90;;;4.00;;
56455;SDS011;42354;53.218;6.564;2023-09-07T14:35:15;8.18;;;3.90;;
56455;SDS011;42354;53.218;6.564;2023-09-07T14:37:41;4.10;;;3.58;;
56455;SDS011;42354;53.218;6.564;2023-09-07T14:40:06;5.35;;;3.40;;
56455;SDS011;42354;53.218;6.564;2023-09-07T14:42:33;6.28;;;3.70;;